createdAt,value
2018-01-11T00:01:03.720Z,20.47
2018-01-11T00:06:06.129Z,21.20
2018-01-11T00:11:08.413Z,20.77
2018-01-11T00:16:10.769Z,21.20
2018-01-11T00:21:12.342Z,22.10
2018-01-11T00:26:13.884Z,21.27
2018-01-11T00:31:15.412Z,20.27
2018-01-11T00:36:17.668Z,21.40
2018-01-11T00:41:19.209Z,21.83
2018-01-11T00:46:20.750Z,19.67
2018-01-11T00:51:22.339Z,20.90
2018-01-11T00:56:23.867Z,21.00
2018-01-11T01:01:26.196Z,20.13
2018-01-11T01:06:27.760Z,23.63
2018-01-11T01:11:29.281Z,22.63
2018-01-11T01:16:31.553Z,22.10
2018-01-11T01:21:33.053Z,23.20
2018-01-11T01:26:34.752Z,22.33
2018-01-11T01:31:36.268Z,23.27
2018-01-11T01:36:38.512Z,25.37
2018-01-11T01:41:40.060Z,21.70
2018-01-11T01:46:41.597Z,24.87
2018-01-11T01:51:43.939Z,23.80
2018-01-11T01:56:46.264Z,24.83
2018-01-11T02:01:48.499Z,24.67
2018-01-11T02:06:50.066Z,24.97
2018-01-11T02:11:51.660Z,24.17
2018-01-11T02:16:53.179Z,22.43
2018-01-11T02:21:54.698Z,21.33
2018-01-11T02:26:56.224Z,23.00
2018-01-11T02:31:57.755Z,26.37
2018-01-11T02:37:00.089Z,25.57
2018-01-11T02:42:01.613Z,27.10
2018-01-11T02:47:03.860Z,26.63
2018-01-11T02:52:05.392Z,27.80
2018-01-11T02:57:06.974Z,25.17
2018-01-11T03:02:09.417Z,26.30
2018-01-11T03:07:11.688Z,28.90
2018-01-11T03:12:13.309Z,29.07
2018-01-11T03:17:14.873Z,30.63
2018-01-11T03:22:16.427Z,29.10
2018-01-11T03:27:18.669Z,31.00
2018-01-11T03:32:20.148Z,31.03
2018-01-11T03:37:21.694Z,31.40
2018-01-11T03:42:23.182Z,30.87
2018-01-11T03:47:24.816Z,30.10
2018-01-11T03:52:26.328Z,31.33
2018-01-11T03:57:28.648Z,32.37
2018-01-11T04:02:30.217Z,30.97
2018-01-11T04:07:31.791Z,32.37
2018-01-11T04:12:33.378Z,31.37
2018-01-11T04:17:34.957Z,31.80
2018-01-11T04:22:36.485Z,31.67
2018-01-11T04:27:38.029Z,30.23
2018-01-11T04:32:40.280Z,32.47
2018-01-11T04:37:41.856Z,29.07
2018-01-11T04:42:43.399Z,32.50
2018-01-11T04:47:44.976Z,33.27
2018-01-11T04:52:46.543Z,31.53
2018-01-11T04:57:48.068Z,32.07
2018-01-11T05:02:49.720Z,36.17
2018-01-11T05:07:51.978Z,33.77
2018-01-11T05:12:53.529Z,34.00
2018-01-11T05:17:55.092Z,35.57
2018-01-11T05:22:56.773Z,31.40
2018-01-11T05:27:58.310Z,34.63
2018-01-11T05:32:59.851Z,33.90
2018-01-11T05:38:02.193Z,33.80
2018-01-11T05:43:03.753Z,34.67
2018-01-11T05:48:05.272Z,38.53
2018-01-11T05:53:07.620Z,35.40
2018-01-11T05:58:09.163Z,37.07
2018-01-11T06:03:10.792Z,37.17
2018-01-11T06:08:13.061Z,35.40
2018-01-11T06:13:14.690Z,35.40
2018-01-11T06:18:16.201Z,36.67
2018-01-11T06:23:17.702Z,33.27
2018-01-11T06:28:19.217Z,30.93
2018-01-11T06:33:20.719Z,30.10
2018-01-11T06:38:22.985Z,32.50
2018-01-11T06:43:24.562Z,31.57
2018-01-11T06:48:26.071Z,31.87
2018-01-11T06:53:27.576Z,33.43
2018-01-11T06:58:29.106Z,28.90
2018-01-11T07:03:30.639Z,34.80
2018-01-11T07:08:32.889Z,31.83
2018-01-11T07:13:34.442Z,32.37
2018-01-11T07:18:36.064Z,33.90
2018-01-11T07:23:38.347Z,29.00
2018-01-11T07:28:41.453Z,32.87
2018-01-11T07:33:43.000Z,33.93
2018-01-11T07:38:44.529Z,36.40
2018-01-11T07:43:46.015Z,31.90
2018-01-11T07:48:47.531Z,36.97
2018-01-11T07:53:49.787Z,33.47
2018-01-11T07:58:51.281Z,34.80
2018-01-11T08:03:53.518Z,33.77
2018-01-11T08:08:55.090Z,32.93
2018-01-11T08:13:56.693Z,33.03
2018-01-11T08:18:59.034Z,35.67
2018-01-11T08:24:01.215Z,32.30
2018-01-11T08:29:02.898Z,32.07
2018-01-11T08:34:04.509Z,26.83
2018-01-11T08:39:06.777Z,24.97
2018-01-11T08:44:08.284Z,22.40
2018-01-11T08:49:09.799Z,19.77
2018-01-11T08:54:12.700Z,17.70
2018-01-11T08:59:14.816Z,19.83
2018-01-11T09:04:16.844Z,20.00
2018-01-11T09:09:18.365Z,23.60
2018-01-11T09:14:19.865Z,27.70
2018-01-11T09:19:22.324Z,27.57
2018-01-11T09:24:23.813Z,25.23
2018-01-11T09:29:25.481Z,26.93
2018-01-11T09:34:28.897Z,26.43
2018-01-11T09:39:30.713Z,24.10
2018-01-11T09:44:32.297Z,24.03
2018-01-11T09:49:34.514Z,24.40
2018-01-11T09:54:35.992Z,23.87
2018-01-11T09:59:37.607Z,22.67
2018-01-11T10:04:39.186Z,23.20
2018-01-11T10:09:41.420Z,22.10
2018-01-11T10:14:42.943Z,22.70
2018-01-11T10:19:45.202Z,22.67
2018-01-11T10:24:47.508Z,23.53
2018-01-11T10:29:49.767Z,21.90
2018-01-11T10:34:51.228Z,22.07
2018-01-11T10:39:53.489Z,18.43
2018-01-11T10:44:55.003Z,16.30
2018-01-11T10:49:56.499Z,17.90
2018-01-11T10:54:58.070Z,17.83
2018-01-11T10:59:59.558Z,17.10
2018-01-11T11:05:01.046Z,17.90
2018-01-11T11:10:02.573Z,18.30
2018-01-11T11:15:04.148Z,16.80
2018-01-11T11:20:05.765Z,15.77
2018-01-11T11:25:07.489Z,16.77
2018-01-11T11:30:09.147Z,17.37
2018-01-11T11:35:10.851Z,18.37
2018-01-11T11:40:12.324Z,19.33
2018-01-11T11:45:13.858Z,20.80
2018-01-11T11:50:15.369Z,20.40
2018-01-11T11:55:16.928Z,20.60
2018-01-11T12:00:18.476Z,22.27
2018-01-11T12:05:19.984Z,22.10
2018-01-11T12:10:21.531Z,20.20
2018-01-11T12:15:23.045Z,21.60
2018-01-11T12:20:25.296Z,21.67
2018-01-11T12:25:26.819Z,21.70
2018-01-11T12:30:28.407Z,21.80
2018-01-11T12:35:29.944Z,21.10
2018-01-11T12:40:31.455Z,22.83
2018-01-11T12:45:32.945Z,23.60
2018-01-11T12:50:34.480Z,24.90
2018-01-11T12:55:35.969Z,24.97
2018-01-11T13:00:37.476Z,24.80
2018-01-11T13:05:39.033Z,25.63
2018-01-11T13:10:41.277Z,24.20
2018-01-11T13:15:42.774Z,24.07
2018-01-11T13:20:44.304Z,23.07
2018-01-11T13:25:45.868Z,23.63
2018-01-11T13:30:47.420Z,23.60
2018-01-11T13:35:48.906Z,23.60
2018-01-11T13:40:50.410Z,23.50
2018-01-11T13:45:52.017Z,24.10
2018-01-11T13:50:53.632Z,24.23
2018-01-11T13:55:55.164Z,22.80
2018-01-11T14:00:56.640Z,23.50
2018-01-11T14:05:58.099Z,21.83
2018-01-11T14:10:59.635Z,24.20
2018-01-11T14:16:01.910Z,22.87
2018-01-11T14:21:04.213Z,21.50
2018-01-11T14:26:05.716Z,21.77
2018-01-11T14:31:07.259Z,21.23
2018-01-11T14:36:08.781Z,20.30
2018-01-11T14:41:10.315Z,20.57
2018-01-11T14:46:11.837Z,20.03
2018-01-11T14:51:14.164Z,20.20
2018-01-11T14:56:15.777Z,20.67
2018-01-11T15:01:17.317Z,19.30
2018-01-11T15:06:18.812Z,19.87
2018-01-11T15:11:20.313Z,21.50
2018-01-11T15:16:21.885Z,19.60
2018-01-11T15:21:23.354Z,17.13
2018-01-11T15:26:24.844Z,17.00
2018-01-11T15:31:26.370Z,14.83
2018-01-11T15:36:27.917Z,14.87
2018-01-11T15:41:29.415Z,17.47
2018-01-11T15:46:30.898Z,17.73
2018-01-11T15:51:32.320Z,20.50
2018-01-11T15:56:34.526Z,22.23
2018-01-11T16:01:36.060Z,22.10
2018-01-11T16:06:37.608Z,23.43
2018-01-11T16:11:39.132Z,22.63
2018-01-11T16:16:40.702Z,23.70
2018-01-11T16:21:42.244Z,21.30
2018-01-11T16:26:44.548Z,23.07
2018-01-11T16:31:46.159Z,22.37
2018-01-11T16:36:47.861Z,20.93
2018-01-11T16:41:49.396Z,22.60
2018-01-11T16:46:51.117Z,22.70
2018-01-11T16:51:52.725Z,22.20
2018-01-11T16:56:54.281Z,25.80
2018-01-11T17:01:55.893Z,24.27
2018-01-11T17:06:57.477Z,24.70
2018-01-11T17:11:59.018Z,23.10
2018-01-11T17:17:00.537Z,23.00
2018-01-11T17:22:02.858Z,21.40
2018-01-11T17:27:04.383Z,22.60
2018-01-11T17:32:06.704Z,22.77
2018-01-11T17:37:08.309Z,24.30
2018-01-11T17:42:09.883Z,25.17
2018-01-11T17:47:11.445Z,27.00
2018-01-11T17:52:13.003Z,26.30
2018-01-11T17:57:14.717Z,27.63
2018-01-11T18:02:16.305Z,26.67
2018-01-11T18:07:17.857Z,55.97
2018-01-11T18:12:19.645Z,89.07
2018-01-11T18:17:21.278Z,53.43
2018-01-11T18:22:22.845Z,41.30
2018-01-11T18:27:24.392Z,28.23
2018-01-11T18:32:26.876Z,27.40
2018-01-11T18:37:28.457Z,26.67
2018-01-11T18:42:29.999Z,28.07
2018-01-11T18:47:31.544Z,28.73
2018-01-11T18:52:33.786Z,28.27
2018-01-11T18:57:35.435Z,28.33
2018-01-11T19:02:36.976Z,30.27
2018-01-11T19:07:38.564Z,28.77
2018-01-11T19:12:40.242Z,24.30
2018-01-11T19:17:41.781Z,29.57
2018-01-11T19:22:43.347Z,29.23
2018-01-11T19:27:44.916Z,26.27
2018-01-11T19:32:46.523Z,25.77
2018-01-11T19:37:48.069Z,28.00
2018-01-11T19:42:49.602Z,29.73
2018-01-11T19:47:51.174Z,27.93
2018-01-11T19:52:52.782Z,26.93
2018-01-11T19:57:54.402Z,20.97
2018-01-11T20:02:56.720Z,20.60
2018-01-11T20:07:58.392Z,21.63
2018-01-11T20:13:00.045Z,21.83
2018-01-11T20:18:01.599Z,24.20
2018-01-11T20:23:03.124Z,25.27
2018-01-11T20:28:04.780Z,27.10
2018-01-11T20:33:06.367Z,26.30
2018-01-11T20:38:07.922Z,29.43
2018-01-11T20:43:09.755Z,30.80
2018-01-11T20:48:11.349Z,27.20
2018-01-11T20:53:12.889Z,26.30
2018-01-11T20:58:14.493Z,24.13
2018-01-11T21:03:16.128Z,23.70
2018-01-11T21:08:17.645Z,23.33
2018-01-11T21:13:19.147Z,24.07
2018-01-11T21:18:21.528Z,21.33
2018-01-11T21:23:23.078Z,22.90
2018-01-11T21:28:24.601Z,23.20
2018-01-11T21:33:26.379Z,24.20
2018-01-11T21:38:27.980Z,22.27
2018-01-11T21:43:29.661Z,22.17
2018-01-11T21:48:31.220Z,22.20
2018-01-11T21:53:32.795Z,20.77
2018-01-11T21:58:34.402Z,20.00
2018-01-11T22:03:36.436Z,19.37
2018-01-11T22:08:38.083Z,19.27
2018-01-11T22:13:39.675Z,19.93
2018-01-11T22:18:41.229Z,21.03
2018-01-11T22:23:42.839Z,18.00
2018-01-11T22:28:45.179Z,12.30
2018-01-11T22:33:46.801Z,10.27
2018-01-11T22:38:49.156Z,14.60
2018-01-11T22:43:50.752Z,17.73
2018-01-11T22:48:52.370Z,15.87
2018-01-11T22:53:53.969Z,15.20
2018-01-11T22:58:55.540Z,13.60
2018-01-11T23:03:57.095Z,12.43
2018-01-11T23:08:58.681Z,14.13
2018-01-11T23:14:00.300Z,14.93
2018-01-11T23:19:01.838Z,14.47
2018-01-11T23:24:04.113Z,14.27
2018-01-11T23:29:05.647Z,14.77
2018-01-11T23:34:07.241Z,13.97
2018-01-11T23:39:08.814Z,14.77
2018-01-11T23:44:11.131Z,14.43
2018-01-11T23:49:12.720Z,15.10
2018-01-11T23:54:14.310Z,16.23
2018-01-11T23:59:15.893Z,16.00
